sensor_id;sensor_type;location;lat;lon;timestamp;P1;durP1;ratioP1;P2;durP2;ratioP2
62457;SDS011;48509;52.122;5.250;2023-03-23T00:01:11;12.7;;;6.2;;
62457;SDS011;48509;52.122;5.250;2023-03-23T00:04:25;12.6;;;6.9;;
62457;SDS011;48509;52.122;5.250;2023-03-23T00:06:01;10.9;;;7.0;;
62457;SDS011;48509;52.122;5.250;2023-03-23T00:07:38;13.3;;;7.8;;
62457;SDS011;48509;52.122;5.250;2023-03-23T00:10:51;13.2;;;6.9;;
62457;SDS011;48509;52.122;5.250;2023-03-23T00:12:28;12.0;;;6.2;;
62457;SDS011;48509;52.122;5.250;2023-03-23T00:14:07;11.2;;;6.7;;
62457;SDS011;48509;52.122;5.250;2023-03-23T00:15:45;13.5;;;6.4;;
62457;SDS011;48509;52.122;5.250;2023-03-23T00:18:59;11.1;;;6.4;;
62457;SDS011;48509;52.122;5.250;2023-03-23T00:20:37;13.6;;;6.4;;
62457;SDS011;48509;52.122;5.250;2023-03-23T00:22:15;12.7;;;7.0;;
62457;SDS011;48509;52.122;5.250;2023-03-23T00:25:29;11.2;;;6.7;;
62457;SDS011;48509;52.122;5.250;2023-03-23T00:27:05;11.9;;;5.8;;
62457;SDS011;48509;52.122;5.250;2023-03-23T00:28:41;12.3;;;6.2;;
62457;SDS011;48509;52.122;5.250;2023-03-23T00:30:17;9.6;;;5.9;;
62457;SDS011;48509;52.122;5.250;2023-03-23T00:33:30;12.5;;;6.5;;
62457;SDS011;48509;52.122;5.250;2023-03-23T00:35:09;9.4;;;5.4;;
62457;SDS011;48509;52.122;5.250;2023-03-23T00:36:45;10.9;;;6.1;;
62457;SDS011;48509;52.122;5.250;2023-03-23T00:40:00;9.31;;;5.8;;
62457;SDS011;48509;52.122;5.250;2023-03-23T00:41:36;7.9;;;5.4;;
62457;SDS011;48509;52.122;5.250;2023-03-23T00:43:12;11.0;;;5.8;;
62457;SDS011;48509;52.122;5.250;2023-03-23T00:46:25;10.9;;;5.8;;
62457;SDS011;48509;52.122;5.250;2023-03-23T00:48:01;11.8;;;5.8;;
62457;SDS011;48509;52.122;5.250;2023-03-23T00:51:14;10.7;;;6.0;;
62457;SDS011;48509;52.122;5.250;2023-03-23T00:54:27;10.4;;;5.4;;
62457;SDS011;48509;52.122;5.250;2023-03-23T00:56:04;7.0;;;4.61;;
62457;SDS011;48509;52.122;5.250;2023-03-23T00:57:41;11.3;;;5.5;;
62457;SDS011;48509;52.122;5.250;2023-03-23T01:00:54;8.71;;;5.4;;
62457;SDS011;48509;52.122;5.250;2023-03-23T01:02:30;10.7;;;5.4;;
62457;SDS011;48509;52.122;5.250;2023-03-23T01:04:08;8.71;;;5.2;;
62457;SDS011;48509;52.122;5.250;2023-03-23T01:07:21;10.0;;;5.2;;
62457;SDS011;48509;52.122;5.250;2023-03-23T01:08:58;6.7;;;4.3;;
62457;SDS011;48509;52.122;5.250;2023-03-23T01:10:35;8.5;;;4.61;;
62457;SDS011;48509;52.122;5.250;2023-03-23T01:12:11;8.5;;;4.61;;
62457;SDS011;48509;52.122;5.250;2023-03-23T01:15:23;7.4;;;4.3;;
62457;SDS011;48509;52.122;5.250;2023-03-23T01:16:59;5.8;;;4.1;;
62457;SDS011;48509;52.122;5.250;2023-03-23T01:18:35;7.7;;;4.41;;
62457;SDS011;48509;52.122;5.250;2023-03-23T01:21:50;8.2;;;4.0;;
62457;SDS011;48509;52.122;5.250;2023-03-23T01:23:26;10.7;;;4.61;;
62457;SDS011;48509;52.122;5.250;2023-03-23T01:25:03;9.5;;;4.3;;
62457;SDS011;48509;52.122;5.250;2023-03-23T01:28:16;6.8;;;4.3;;
62457;SDS011;48509;52.122;5.250;2023-03-23T01:29:52;5.8;;;3.9;;
62457;SDS011;48509;52.122;5.250;2023-03-23T01:31:28;7.9;;;4.1;;
62457;SDS011;48509;52.122;5.250;2023-03-23T01:33:04;6.9;;;4.1;;
62457;SDS011;48509;52.122;5.250;2023-03-23T01:36:17;6.4;;;4.3;;
62457;SDS011;48509;52.122;5.250;2023-03-23T01:37:56;6.4;;;4.3;;
62457;SDS011;48509;52.122;5.250;2023-03-23T01:39:33;7.1;;;4.2;;
62457;SDS011;48509;52.122;5.250;2023-03-23T01:42:50;7.9;;;4.61;;
62457;SDS011;48509;52.122;5.250;2023-03-23T01:45:17;8.1;;;4.7;;
62457;SDS011;48509;52.122;5.250;2023-03-23T01:47:01;6.2;;;4.41;;
62457;SDS011;48509;52.122;5.250;2023-03-23T01:48:38;6.6;;;4.41;;
62457;SDS011;48509;52.122;5.250;2023-03-23T01:50:15;6.6;;;4.7;;
62457;SDS011;48509;52.122;5.250;2023-03-23T01:51:53;6.2;;;4.41;;
62457;SDS011;48509;52.122;5.250;2023-03-23T01:55:16;7.6;;;4.8;;
62457;SDS011;48509;52.122;5.250;2023-03-23T01:56:53;8.0;;;4.7;;
62457;SDS011;48509;52.122;5.250;2023-03-23T01:58:34;9.81;;;4.3;;
62457;SDS011;48509;52.122;5.250;2023-03-23T02:00:13;6.0;;;4.2;;
62457;SDS011;48509;52.122;5.250;2023-03-23T02:03:28;6.6;;;4.2;;
62457;SDS011;48509;52.122;5.250;2023-03-23T02:05:08;7.5;;;4.8;;
62457;SDS011;48509;52.122;5.250;2023-03-23T02:06:49;6.1;;;4.3;;
62457;SDS011;48509;52.122;5.250;2023-03-23T02:10:04;8.0;;;4.7;;
62457;SDS011;48509;52.122;5.250;2023-03-23T02:11:41;6.2;;;4.61;;
62457;SDS011;48509;52.122;5.250;2023-03-23T02:13:17;6.5;;;4.61;;
62457;SDS011;48509;52.122;5.250;2023-03-23T02:14:54;7.1;;;4.5;;
62457;SDS011;48509;52.122;5.250;2023-03-23T02:18:19;9.6;;;5.11;;
62457;SDS011;48509;52.122;5.250;2023-03-23T02:20:16;5.6;;;4.8;;
62457;SDS011;48509;52.122;5.250;2023-03-23T02:22:14;6.6;;;4.7;;
62457;SDS011;48509;52.122;5.250;2023-03-23T02:25:31;8.71;;;4.91;;
62457;SDS011;48509;52.122;5.250;2023-03-23T02:27:37;11.4;;;5.0;;
62457;SDS011;48509;52.122;5.250;2023-03-23T02:30:07;8.4;;;5.2;;
62457;SDS011;48509;52.122;5.250;2023-03-23T02:32:04;6.3;;;4.61;;
62457;SDS011;48509;52.122;5.250;2023-03-23T02:33:50;7.7;;;4.8;;
62457;SDS011;48509;52.122;5.250;2023-03-23T02:37:13;10.9;;;4.91;;
62457;SDS011;48509;52.122;5.250;2023-03-23T02:38:57;10.9;;;4.91;;
62457;SDS011;48509;52.122;5.250;2023-03-23T02:40:41;7.4;;;5.0;;
62457;SDS011;48509;52.122;5.250;2023-03-23T02:42:21;7.0;;;4.5;;
62457;SDS011;48509;52.122;5.250;2023-03-23T02:45:41;7.8;;;4.61;;
62457;SDS011;48509;52.122;5.250;2023-03-23T02:47:21;5.7;;;4.41;;
62457;SDS011;48509;52.122;5.250;2023-03-23T02:49:00;7.1;;;4.2;;
62457;SDS011;48509;52.122;5.250;2023-03-23T02:50:41;7.6;;;4.0;;
62457;SDS011;48509;52.122;5.250;2023-03-23T02:54:03;7.2;;;3.9;;
62457;SDS011;48509;52.122;5.250;2023-03-23T02:55:42;8.71;;;4.1;;
62457;SDS011;48509;52.122;5.250;2023-03-23T02:57:20;5.9;;;3.9;;
62457;SDS011;48509;52.122;5.250;2023-03-23T02:58:58;7.0;;;3.8;;
62457;SDS011;48509;52.122;5.250;2023-03-23T03:02:12;8.9;;;3.7;;
62457;SDS011;48509;52.122;5.250;2023-03-23T03:03:53;5.8;;;3.8;;
62457;SDS011;48509;52.122;5.250;2023-03-23T03:05:35;6.9;;;3.6;;
62457;SDS011;48509;52.122;5.250;2023-03-23T03:07:22;8.31;;;3.8;;
62457;SDS011;48509;52.122;5.250;2023-03-23T03:09:25;7.8;;;3.2;;
62457;SDS011;48509;52.122;5.250;2023-03-23T03:12:51;8.5;;;3.5;;
62457;SDS011;48509;52.122;5.250;2023-03-23T03:14:33;7.9;;;3.6;;
62457;SDS011;48509;52.122;5.250;2023-03-23T03:16:19;9.1;;;3.1;;
62457;SDS011;48509;52.122;5.250;2023-03-23T03:18:04;5.4;;;3.2;;
62457;SDS011;48509;52.122;5.250;2023-03-23T03:19:48;7.7;;;3.5;;
62457;SDS011;48509;52.122;5.250;2023-03-23T03:23:10;9.21;;;3.3;;
62457;SDS011;48509;52.122;5.250;2023-03-23T03:24:48;8.31;;;3.2;;
62457;SDS011;48509;52.122;5.250;2023-03-23T03:26:27;9.21;;;3.3;;
62457;SDS011;48509;52.122;5.250;2023-03-23T03:28:06;7.9;;;3.3;;
62457;SDS011;48509;52.122;5.250;2023-03-23T03:31:22;9.1;;;3.1;;
62457;SDS011;48509;52.122;5.250;2023-03-23T03:33:04;7.4;;;2.9;;
62457;SDS011;48509;52.122;5.250;2023-03-23T03:34:40;7.1;;;2.8;;
62457;SDS011;48509;52.122;5.250;2023-03-23T03:37:57;5.8;;;2.8;;
62457;SDS011;48509;52.122;5.250;2023-03-23T03:39:41;6.8;;;2.7;;
62457;SDS011;48509;52.122;5.250;2023-03-23T03:41:17;7.5;;;2.9;;
62457;SDS011;48509;52.122;5.250;2023-03-23T03:42:55;7.5;;;2.9;;
62457;SDS011;48509;52.122;5.250;2023-03-23T03:46:08;7.3;;;2.9;;
62457;SDS011;48509;52.122;5.250;2023-03-23T03:47:44;7.8;;;2.9;;
62457;SDS011;48509;52.122;5.250;2023-03-23T03:49:21;8.1;;;3.0;;
62457;SDS011;48509;52.122;5.250;2023-03-23T03:52:33;6.6;;;2.7;;
62457;SDS011;48509;52.122;5.250;2023-03-23T03:54:10;5.9;;;2.6;;
62457;SDS011;48509;52.122;5.250;2023-03-23T03:55:46;7.9;;;2.8;;
62457;SDS011;48509;52.122;5.250;2023-03-23T03:57:22;8.4;;;2.4;;
62457;SDS011;48509;52.122;5.250;2023-03-23T04:00:35;6.8;;;2.8;;
62457;SDS011;48509;52.122;5.250;2023-03-23T04:02:11;7.2;;;2.5;;
62457;SDS011;48509;52.122;5.250;2023-03-23T04:03:47;7.3;;;3.0;;
62457;SDS011;48509;52.122;5.250;2023-03-23T04:06:59;6.4;;;2.6;;
62457;SDS011;48509;52.122;5.250;2023-03-23T04:08:36;6.4;;;2.6;;
62457;SDS011;48509;52.122;5.250;2023-03-23T04:10:12;4.91;;;2.6;;
62457;SDS011;48509;52.122;5.250;2023-03-23T04:13:25;5.4;;;2.5;;
62457;SDS011;48509;52.122;5.250;2023-03-23T04:15:01;8.81;;;2.7;;
62457;SDS011;48509;52.122;5.250;2023-03-23T04:16:38;6.4;;;2.7;;
62457;SDS011;48509;52.122;5.250;2023-03-23T04:19:52;6.6;;;2.4;;
62457;SDS011;48509;52.122;5.250;2023-03-23T04:21:29;6.9;;;2.5;;
62457;SDS011;48509;52.122;5.250;2023-03-23T04:23:05;8.1;;;2.6;;
62457;SDS011;48509;52.122;5.250;2023-03-23T04:24:41;6.4;;;2.21;;
62457;SDS011;48509;52.122;5.250;2023-03-23T04:27:54;9.9;;;2.5;;
62457;SDS011;48509;52.122;5.250;2023-03-23T04:29:30;6.6;;;2.4;;
62457;SDS011;48509;52.122;5.250;2023-03-23T04:31:06;9.21;;;2.7;;
62457;SDS011;48509;52.122;5.250;2023-03-23T04:34:18;7.8;;;2.5;;
62457;SDS011;48509;52.122;5.250;2023-03-23T04:35:55;8.9;;;2.6;;
62457;SDS011;48509;52.122;5.250;2023-03-23T04:37:36;8.0;;;2.9;;
62457;SDS011;48509;52.122;5.250;2023-03-23T04:39:14;9.81;;;2.7;;
62457;SDS011;48509;52.122;5.250;2023-03-23T04:42:28;9.21;;;2.9;;
62457;SDS011;48509;52.122;5.250;2023-03-23T04:44:06;12.8;;;2.9;;
62457;SDS011;48509;52.122;5.250;2023-03-23T04:45:43;7.6;;;2.6;;
62457;SDS011;48509;52.122;5.250;2023-03-23T04:48:55;8.81;;;2.6;;
62457;SDS011;48509;52.122;5.250;2023-03-23T04:50:32;10.21;;;2.5;;
62457;SDS011;48509;52.122;5.250;2023-03-23T04:52:09;10.6;;;2.8;;
62457;SDS011;48509;52.122;5.250;2023-03-23T04:55:21;9.0;;;2.8;;
62457;SDS011;48509;52.122;5.250;2023-03-23T04:56:57;11.1;;;3.0;;
62457;SDS011;48509;52.122;5.250;2023-03-23T04:58:33;12.8;;;2.7;;
62457;SDS011;48509;52.122;5.250;2023-03-23T05:00:10;11.1;;;2.9;;
62457;SDS011;48509;52.122;5.250;2023-03-23T05:03:23;14.0;;;3.1;;
62457;SDS011;48509;52.122;5.250;2023-03-23T05:04:59;10.4;;;2.8;;
62457;SDS011;48509;52.122;5.250;2023-03-23T05:06:35;10.3;;;2.9;;
62457;SDS011;48509;52.122;5.250;2023-03-23T05:09:47;13.2;;;3.2;;
62457;SDS011;48509;52.122;5.250;2023-03-23T05:11:24;12.4;;;3.0;;
62457;SDS011;48509;52.122;5.250;2023-03-23T05:13:00;11.1;;;2.9;;
62457;SDS011;48509;52.122;5.250;2023-03-23T05:16:16;13.8;;;3.3;;
62457;SDS011;48509;52.122;5.250;2023-03-23T05:17:52;17.3;;;3.7;;
62457;SDS011;48509;52.122;5.250;2023-03-23T05:19:28;15.4;;;3.0;;
62457;SDS011;48509;52.122;5.250;2023-03-23T05:21:04;18.11;;;3.5;;
62457;SDS011;48509;52.122;5.250;2023-03-23T05:24:17;12.5;;;3.1;;
62457;SDS011;48509;52.122;5.250;2023-03-23T05:25:53;14.8;;;3.6;;
62457;SDS011;48509;52.122;5.250;2023-03-23T05:27:31;16.5;;;3.8;;
62457;SDS011;48509;52.122;5.250;2023-03-23T05:30:43;14.7;;;3.6;;
62457;SDS011;48509;52.122;5.250;2023-03-23T05:32:19;16.7;;;3.6;;
62457;SDS011;48509;52.122;5.250;2023-03-23T05:33:55;13.9;;;3.3;;
62457;SDS011;48509;52.122;5.250;2023-03-23T05:37:08;13.9;;;3.3;;
62457;SDS011;48509;52.122;5.250;2023-03-23T05:38:45;14.6;;;3.7;;
62457;SDS011;48509;52.122;5.250;2023-03-23T05:40:21;13.8;;;3.4;;
62457;SDS011;48509;52.122;5.250;2023-03-23T05:41:57;13.6;;;3.4;;
62457;SDS011;48509;52.122;5.250;2023-03-23T05:45:09;18.8;;;4.2;;
62457;SDS011;48509;52.122;5.250;2023-03-23T05:46:46;16.9;;;4.0;;
62457;SDS011;48509;52.122;5.250;2023-03-23T05:48:23;19.8;;;4.0;;
62457;SDS011;48509;52.122;5.250;2023-03-23T05:51:37;14.5;;;3.7;;
62457;SDS011;48509;52.122;5.250;2023-03-23T05:53:13;20.7;;;4.3;;
62457;SDS011;48509;52.122;5.250;2023-03-23T05:54:49;19.91;;;4.2;;
62457;SDS011;48509;52.122;5.250;2023-03-23T05:58:01;16.3;;;4.0;;
62457;SDS011;48509;52.122;5.250;2023-03-23T05:59:37;16.3;;;4.1;;
62457;SDS011;48509;52.122;5.250;2023-03-23T06:01:13;17.41;;;4.2;;
62457;SDS011;48509;52.122;5.250;2023-03-23T06:04:30;20.3;;;4.7;;
62457;SDS011;48509;52.122;5.250;2023-03-23T06:06:08;28.1;;;6.0;;
62457;SDS011;48509;52.122;5.250;2023-03-23T06:07:46;21.6;;;4.91;;
62457;SDS011;48509;52.122;5.250;2023-03-23T06:09:22;15.6;;;4.0;;
62457;SDS011;48509;52.122;5.250;2023-03-23T06:12:34;19.11;;;4.61;;
62457;SDS011;48509;52.122;5.250;2023-03-23T06:14:10;21.4;;;5.11;;
62457;SDS011;48509;52.122;5.250;2023-03-23T06:15:47;17.0;;;4.91;;
62457;SDS011;48509;52.122;5.250;2023-03-23T06:19:00;15.6;;;3.9;;
62457;SDS011;48509;52.122;5.250;2023-03-23T06:20:36;9.71;;;3.4;;
62457;SDS011;48509;52.122;5.250;2023-03-23T06:22:12;16.0;;;3.9;;
62457;SDS011;48509;52.122;5.250;2023-03-23T06:23:49;12.0;;;3.6;;
62457;SDS011;48509;52.122;5.250;2023-03-23T06:27:01;13.6;;;3.6;;
62457;SDS011;48509;52.122;5.250;2023-03-23T06:28:37;11.9;;;3.6;;
62457;SDS011;48509;52.122;5.250;2023-03-23T06:30:14;11.3;;;4.0;;
62457;SDS011;48509;52.122;5.250;2023-03-23T06:33:32;14.0;;;3.8;;
62457;SDS011;48509;52.122;5.250;2023-03-23T06:35:09;12.1;;;3.9;;
62457;SDS011;48509;52.122;5.250;2023-03-23T06:36:46;13.5;;;3.9;;
62457;SDS011;48509;52.122;5.250;2023-03-23T06:39:59;19.91;;;5.0;;
62457;SDS011;48509;52.122;5.250;2023-03-23T06:41:35;18.41;;;4.91;;
62457;SDS011;48509;52.122;5.250;2023-03-23T06:43:13;17.41;;;5.0;;
62457;SDS011;48509;52.122;5.250;2023-03-23T06:44:49;19.5;;;5.3;;
62457;SDS011;48509;52.122;5.250;2023-03-23T06:48:01;14.2;;;4.7;;
62457;SDS011;48509;52.122;5.250;2023-03-23T06:49:37;15.7;;;4.2;;
62457;SDS011;48509;52.122;5.250;2023-03-23T06:51:13;17.5;;;4.91;;
62457;SDS011;48509;52.122;5.250;2023-03-23T06:54:27;19.0;;;4.8;;
62457;SDS011;48509;52.122;5.250;2023-03-23T06:56:03;18.3;;;5.2;;
62457;SDS011;48509;52.122;5.250;2023-03-23T06:57:39;19.8;;;5.11;;
62457;SDS011;48509;52.122;5.250;2023-03-23T07:00:53;16.11;;;4.2;;
62457;SDS011;48509;52.122;5.250;2023-03-23T07:02:29;17.7;;;4.8;;
62457;SDS011;48509;52.122;5.250;2023-03-23T07:04:05;17.3;;;4.5;;
62457;SDS011;48509;52.122;5.250;2023-03-23T07:05:41;15.8;;;4.1;;
62457;SDS011;48509;52.122;5.250;2023-03-23T07:08:58;14.9;;;4.1;;
62457;SDS011;48509;52.122;5.250;2023-03-23T07:10:34;11.8;;;3.6;;
62457;SDS011;48509;52.122;5.250;2023-03-23T07:12:10;19.7;;;5.3;;
62457;SDS011;48509;52.122;5.250;2023-03-23T07:15:22;15.6;;;5.0;;
62457;SDS011;48509;52.122;5.250;2023-03-23T07:16:58;17.0;;;4.8;;
62457;SDS011;48509;52.122;5.250;2023-03-23T07:18:34;14.0;;;4.1;;
62457;SDS011;48509;52.122;5.250;2023-03-23T07:21:48;13.8;;;4.41;;
62457;SDS011;48509;52.122;5.250;2023-03-23T07:23:24;14.7;;;4.5;;
62457;SDS011;48509;52.122;5.250;2023-03-23T07:25:00;16.4;;;4.3;;
62457;SDS011;48509;52.122;5.250;2023-03-23T07:26:36;14.8;;;4.1;;
62457;SDS011;48509;52.122;5.250;2023-03-23T07:29:48;15.6;;;4.1;;
62457;SDS011;48509;52.122;5.250;2023-03-23T07:31:25;15.5;;;4.5;;
62457;SDS011;48509;52.122;5.250;2023-03-23T07:33:04;12.4;;;4.5;;
62457;SDS011;48509;52.122;5.250;2023-03-23T07:36:17;18.61;;;4.5;;
62457;SDS011;48509;52.122;5.250;2023-03-23T07:37:53;13.4;;;4.1;;
62457;SDS011;48509;52.122;5.250;2023-03-23T07:39:29;21.5;;;4.7;;
62457;SDS011;48509;52.122;5.250;2023-03-23T07:42:43;18.2;;;4.8;;
62457;SDS011;48509;52.122;5.250;2023-03-23T07:44:21;18.3;;;4.7;;
62457;SDS011;48509;52.122;5.250;2023-03-23T07:45:58;14.5;;;3.9;;
62457;SDS011;48509;52.122;5.250;2023-03-23T07:47:34;16.3;;;4.5;;
62457;SDS011;48509;52.122;5.250;2023-03-23T07:50:46;16.9;;;4.2;;
62457;SDS011;48509;52.122;5.250;2023-03-23T07:52:22;17.5;;;4.2;;
62457;SDS011;48509;52.122;5.250;2023-03-23T07:53:59;14.5;;;3.7;;
62457;SDS011;48509;52.122;5.250;2023-03-23T07:57:11;17.11;;;4.2;;
62457;SDS011;48509;52.122;5.250;2023-03-23T07:58:47;16.3;;;4.0;;
62457;SDS011;48509;52.122;5.250;2023-03-23T08:00:24;17.7;;;4.1;;
62457;SDS011;48509;52.122;5.250;2023-03-23T08:03:38;15.2;;;4.0;;
62457;SDS011;48509;52.122;5.250;2023-03-23T08:05:14;12.5;;;3.7;;
62457;SDS011;48509;52.122;5.250;2023-03-23T08:06:51;15.2;;;3.8;;
62457;SDS011;48509;52.122;5.250;2023-03-23T08:08:27;13.9;;;3.7;;
62457;SDS011;48509;52.122;5.250;2023-03-23T08:11:40;12.9;;;3.7;;
62457;SDS011;48509;52.122;5.250;2023-03-23T08:13:17;12.3;;;4.2;;
62457;SDS011;48509;52.122;5.250;2023-03-23T08:14:53;13.9;;;4.0;;
62457;SDS011;48509;52.122;5.250;2023-03-23T08:18:06;13.9;;;3.9;;
62457;SDS011;48509;52.122;5.250;2023-03-23T08:19:43;14.0;;;3.7;;
62457;SDS011;48509;52.122;5.250;2023-03-23T08:21:19;11.2;;;3.8;;
62457;SDS011;48509;52.122;5.250;2023-03-23T08:24:32;16.61;;;4.3;;
62457;SDS011;48509;52.122;5.250;2023-03-23T08:26:09;13.5;;;3.7;;
62457;SDS011;48509;52.122;5.250;2023-03-23T08:27:45;14.9;;;3.9;;
62457;SDS011;48509;52.122;5.250;2023-03-23T08:29:23;14.8;;;3.9;;
62457;SDS011;48509;52.122;5.250;2023-03-23T08:32:36;16.9;;;4.1;;
62457;SDS011;48509;52.122;5.250;2023-03-23T08:34:12;13.8;;;4.0;;
62457;SDS011;48509;52.122;5.250;2023-03-23T08:35:54;17.0;;;4.5;;
62457;SDS011;48509;52.122;5.250;2023-03-23T08:39:08;13.3;;;4.3;;
62457;SDS011;48509;52.122;5.250;2023-03-23T08:40:44;16.7;;;4.5;;
62457;SDS011;48509;52.122;5.250;2023-03-23T08:42:20;12.2;;;4.1;;
62457;SDS011;48509;52.122;5.250;2023-03-23T08:43:56;14.0;;;4.0;;
62457;SDS011;48509;52.122;5.250;2023-03-23T08:47:08;15.6;;;4.1;;
62457;SDS011;48509;52.122;5.250;2023-03-23T08:48:44;16.0;;;4.3;;
62457;SDS011;48509;52.122;5.250;2023-03-23T08:50:23;13.3;;;3.7;;
62457;SDS011;48509;52.122;5.250;2023-03-23T08:53:38;15.8;;;4.61;;
62457;SDS011;48509;52.122;5.250;2023-03-23T08:55:15;13.0;;;4.3;;
62457;SDS011;48509;52.122;5.250;2023-03-23T08:56:52;13.3;;;4.3;;
62457;SDS011;48509;52.122;5.250;2023-03-23T09:00:05;13.3;;;4.3;;
62457;SDS011;48509;52.122;5.250;2023-03-23T09:01:44;17.7;;;4.5;;
62457;SDS011;48509;52.122;5.250;2023-03-23T09:03:21;16.2;;;3.9;;
62457;SDS011;48509;52.122;5.250;2023-03-23T09:04:57;14.7;;;4.3;;
62457;SDS011;48509;52.122;5.250;2023-03-23T09:08:10;14.2;;;4.1;;
62457;SDS011;48509;52.122;5.250;2023-03-23T09:09:47;14.8;;;4.3;;
62457;SDS011;48509;52.122;5.250;2023-03-23T09:11:23;16.7;;;4.41;;
62457;SDS011;48509;52.122;5.250;2023-03-23T09:14:35;13.7;;;4.1;;
62457;SDS011;48509;52.122;5.250;2023-03-23T09:16:13;15.9;;;4.2;;
62457;SDS011;48509;52.122;5.250;2023-03-23T09:17:50;18.3;;;4.41;;
62457;SDS011;48509;52.122;5.250;2023-03-23T09:21:04;17.7;;;4.41;;
62457;SDS011;48509;52.122;5.250;2023-03-23T09:22:42;17.5;;;4.41;;
62457;SDS011;48509;52.122;5.250;2023-03-23T09:24:21;16.2;;;4.1;;
62457;SDS011;48509;52.122;5.250;2023-03-23T09:25:59;16.4;;;4.41;;
62457;SDS011;48509;52.122;5.250;2023-03-23T09:29:13;17.8;;;4.8;;
62457;SDS011;48509;52.122;5.250;2023-03-23T09:30:50;21.0;;;4.7;;
62457;SDS011;48509;52.122;5.250;2023-03-23T09:32:26;16.9;;;4.0;;
62457;SDS011;48509;52.122;5.250;2023-03-23T09:35:38;21.6;;;4.7;;
62457;SDS011;48509;52.122;5.250;2023-03-23T09:37:15;21.3;;;4.61;;
62457;SDS011;48509;52.122;5.250;2023-03-23T09:38:51;17.3;;;4.5;;
62457;SDS011;48509;52.122;5.250;2023-03-23T09:40:30;18.11;;;4.7;;
62457;SDS011;48509;52.122;5.250;2023-03-23T09:44:14;18.61;;;4.91;;
62457;SDS011;48509;52.122;5.250;2023-03-23T09:46:11;16.8;;;4.61;;
62457;SDS011;48509;52.122;5.250;2023-03-23T09:48:04;17.11;;;4.1;;
62457;SDS011;48509;52.122;5.250;2023-03-23T09:50:09;19.0;;;5.11;;
62457;SDS011;48509;52.122;5.250;2023-03-23T09:51:48;21.3;;;4.61;;
62457;SDS011;48509;52.122;5.250;2023-03-23T09:53:30;18.61;;;4.41;;
62457;SDS011;48509;52.122;5.250;2023-03-23T09:55:14;17.5;;;4.2;;
62457;SDS011;48509;52.122;5.250;2023-03-23T09:58:33;21.7;;;4.61;;
62457;SDS011;48509;52.122;5.250;2023-03-23T10:00:18;19.2;;;4.61;;
62457;SDS011;48509;52.122;5.250;2023-03-23T10:02:04;15.6;;;3.9;;
62457;SDS011;48509;52.122;5.250;2023-03-23T10:03:58;16.3;;;4.2;;
62457;SDS011;48509;52.122;5.250;2023-03-23T10:05:52;17.0;;;3.9;;
62457;SDS011;48509;52.122;5.250;2023-03-23T10:09:06;18.41;;;4.41;;
62457;SDS011;48509;52.122;5.250;2023-03-23T10:10:52;16.61;;;3.9;;
62457;SDS011;48509;52.122;5.250;2023-03-23T10:12:38;17.7;;;3.9;;
62457;SDS011;48509;52.122;5.250;2023-03-23T10:14:28;15.7;;;3.9;;
62457;SDS011;48509;52.122;5.250;2023-03-23T10:16:17;17.2;;;4.3;;
62457;SDS011;48509;52.122;5.250;2023-03-23T10:19:51;16.7;;;4.1;;
62457;SDS011;48509;52.122;5.250;2023-03-23T10:21:51;22.5;;;4.61;;
62457;SDS011;48509;52.122;5.250;2023-03-23T10:23:45;18.8;;;4.0;;
62457;SDS011;48509;52.122;5.250;2023-03-23T10:25:28;15.7;;;3.9;;
62457;SDS011;48509;52.122;5.250;2023-03-23T10:27:11;15.8;;;3.7;;
62457;SDS011;48509;52.122;5.250;2023-03-23T10:28:56;18.91;;;4.41;;
62457;SDS011;48509;52.122;5.250;2023-03-23T10:32:17;18.61;;;4.0;;
62457;SDS011;48509;52.122;5.250;2023-03-23T10:33:59;18.61;;;3.9;;
62457;SDS011;48509;52.122;5.250;2023-03-23T10:35:42;18.2;;;4.2;;
62457;SDS011;48509;52.122;5.250;2023-03-23T10:37:35;19.2;;;4.2;;
62457;SDS011;48509;52.122;5.250;2023-03-23T10:39:16;19.91;;;4.5;;
62457;SDS011;48509;52.122;5.250;2023-03-23T10:42:41;17.5;;;4.41;;
62457;SDS011;48509;52.122;5.250;2023-03-23T10:44:19;20.6;;;4.2;;
62457;SDS011;48509;52.122;5.250;2023-03-23T10:46:00;16.0;;;4.1;;
62457;SDS011;48509;52.122;5.250;2023-03-23T10:47:48;19.7;;;4.2;;
62457;SDS011;48509;52.122;5.250;2023-03-23T10:49:33;18.91;;;4.1;;
62457;SDS011;48509;52.122;5.250;2023-03-23T10:52:54;16.0;;;4.5;;
62457;SDS011;48509;52.122;5.250;2023-03-23T10:54:36;18.61;;;3.7;;
62457;SDS011;48509;52.122;5.250;2023-03-23T10:56:22;20.5;;;4.1;;
62457;SDS011;48509;52.122;5.250;2023-03-23T10:58:02;18.2;;;4.1;;
62457;SDS011;48509;52.122;5.250;2023-03-23T11:01:18;19.5;;;3.8;;
62457;SDS011;48509;52.122;5.250;2023-03-23T11:02:58;16.7;;;4.2;;
62457;SDS011;48509;52.122;5.250;2023-03-23T11:04:37;19.11;;;4.1;;
62457;SDS011;48509;52.122;5.250;2023-03-23T11:06:18;19.11;;;4.1;;
62457;SDS011;48509;52.122;5.250;2023-03-23T11:09:36;15.9;;;4.0;;
62457;SDS011;48509;52.122;5.250;2023-03-23T11:11:15;19.11;;;4.2;;
62457;SDS011;48509;52.122;5.250;2023-03-23T11:12:56;22.9;;;4.61;;
62457;SDS011;48509;52.122;5.250;2023-03-23T11:16:21;17.2;;;3.8;;
62457;SDS011;48509;52.122;5.250;2023-03-23T11:18:01;21.4;;;4.2;;
62457;SDS011;48509;52.122;5.250;2023-03-23T11:19:39;25.2;;;3.7;;
62457;SDS011;48509;52.122;5.250;2023-03-23T11:21:15;15.7;;;4.3;;
62457;SDS011;48509;52.122;5.250;2023-03-23T11:24:29;19.7;;;4.1;;
62457;SDS011;48509;52.122;5.250;2023-03-23T11:26:09;18.0;;;4.41;;
62457;SDS011;48509;52.122;5.250;2023-03-23T11:27:50;21.6;;;4.7;;
62457;SDS011;48509;52.122;5.250;2023-03-23T11:29:26;17.41;;;4.1;;
62457;SDS011;48509;52.122;5.250;2023-03-23T11:32:43;17.3;;;4.91;;
62457;SDS011;48509;52.122;5.250;2023-03-23T11:34:21;17.5;;;4.2;;
62457;SDS011;48509;52.122;5.250;2023-03-23T11:35:59;18.7;;;3.8;;
62457;SDS011;48509;52.122;5.250;2023-03-23T11:37:41;17.5;;;4.1;;
62457;SDS011;48509;52.122;5.250;2023-03-23T11:40:59;16.2;;;3.8;;
62457;SDS011;48509;52.122;5.250;2023-03-23T11:42:38;20.11;;;4.3;;
62457;SDS011;48509;52.122;5.250;2023-03-23T11:44:21;16.0;;;4.0;;
62457;SDS011;48509;52.122;5.250;2023-03-23T11:46:02;16.0;;;4.1;;
62457;SDS011;48509;52.122;5.250;2023-03-23T11:49:38;14.1;;;3.9;;
62457;SDS011;48509;52.122;5.250;2023-03-23T11:51:23;15.2;;;3.8;;
62457;SDS011;48509;52.122;5.250;2023-03-23T11:53:10;13.8;;;3.5;;
62457;SDS011;48509;52.122;5.250;2023-03-23T11:54:57;15.9;;;4.1;;
62457;SDS011;48509;52.122;5.250;2023-03-23T11:56:41;19.3;;;3.9;;
62457;SDS011;48509;52.122;5.250;2023-03-23T11:59:56;18.0;;;3.8;;
62457;SDS011;48509;52.122;5.250;2023-03-23T12:01:38;16.8;;;4.1;;
62457;SDS011;48509;52.122;5.250;2023-03-23T12:03:36;20.0;;;4.2;;
62457;SDS011;48509;52.122;5.250;2023-03-23T12:05:34;14.9;;;3.8;;
62457;SDS011;48509;52.122;5.250;2023-03-23T12:07:24;18.61;;;4.3;;
62457;SDS011;48509;52.122;5.250;2023-03-23T12:09:21;16.2;;;4.1;;
62457;SDS011;48509;52.122;5.250;2023-03-23T12:11:15;15.6;;;3.9;;
62457;SDS011;48509;52.122;5.250;2023-03-23T12:14:53;16.5;;;3.7;;
62457;SDS011;48509;52.122;5.250;2023-03-23T12:16:41;15.2;;;4.1;;
62457;SDS011;48509;52.122;5.250;2023-03-23T12:18:37;20.2;;;4.5;;
62457;SDS011;48509;52.122;5.250;2023-03-23T12:20:31;20.3;;;4.41;;
62457;SDS011;48509;52.122;5.250;2023-03-23T12:22:19;18.91;;;4.3;;
62457;SDS011;48509;52.122;5.250;2023-03-23T12:24:21;17.41;;;4.0;;
62457;SDS011;48509;52.122;5.250;2023-03-23T12:26:15;14.9;;;4.2;;
62457;SDS011;48509;52.122;5.250;2023-03-23T12:27:58;17.91;;;3.8;;
62457;SDS011;48509;52.122;5.250;2023-03-23T12:31:40;17.8;;;3.6;;
62457;SDS011;48509;52.122;5.250;2023-03-23T12:33:27;20.11;;;4.0;;
62457;SDS011;48509;52.122;5.250;2023-03-23T12:35:21;20.9;;;3.9;;
62457;SDS011;48509;52.122;5.250;2023-03-23T12:37:16;16.7;;;4.0;;
62457;SDS011;48509;52.122;5.250;2023-03-23T12:39:25;16.9;;;3.7;;
62457;SDS011;48509;52.122;5.250;2023-03-23T12:41:20;19.7;;;3.4;;
62457;SDS011;48509;52.122;5.250;2023-03-23T12:43:04;15.1;;;3.6;;
62457;SDS011;48509;52.122;5.250;2023-03-23T12:45:02;13.8;;;3.6;;
62457;SDS011;48509;52.122;5.250;2023-03-23T12:46:51;15.8;;;3.5;;
62457;SDS011;48509;52.122;5.250;2023-03-23T12:49:29;13.6;;;3.3;;
62457;SDS011;48509;52.122;5.250;2023-03-23T12:51:13;13.4;;;3.6;;
62457;SDS011;48509;52.122;5.250;2023-03-23T12:52:58;16.11;;;3.3;;